sensor_id;sensor_type;location;lat;lon;timestamp;P1;durP1;ratioP1;P2;durP2;ratioP2
10162;SDS011;5123;52.556;13.384;2022-07-23T00:00:07;7.23;;;6.53;;
10162;SDS011;5123;52.556;13.384;2022-07-23T00:03:00;7.63;;;6.83;;
10162;SDS011;5123;52.556;13.384;2022-07-23T00:05:51;7.43;;;6.73;;
10162;SDS011;5123;52.556;13.384;2022-07-23T00:08:43;7.40;;;6.70;;
10162;SDS011;5123;52.556;13.384;2022-07-23T00:11:33;8.20;;;7.17;;
10162;SDS011;5123;52.556;13.384;2022-07-23T00:14:25;7.93;;;7.03;;
10162;SDS011;5123;52.556;13.384;2022-07-23T00:17:15;7.27;;;6.67;;
10162;SDS011;5123;52.556;13.384;2022-07-23T00:20:09;8.73;;;6.97;;
10162;SDS011;5123;52.556;13.384;2022-07-23T00:23:00;9.47;;;6.43;;
10162;SDS011;5123;52.556;13.384;2022-07-23T00:25:51;8.73;;;7.40;;
10162;SDS011;5123;52.556;13.384;2022-07-23T00:28:42;7.63;;;6.63;;
10162;SDS011;5123;52.556;13.384;2022-07-23T00:31:33;7.60;;;6.73;;
10162;SDS011;5123;52.556;13.384;2022-07-23T00:34:23;8.47;;;6.90;;
10162;SDS011;5123;52.556;13.384;2022-07-23T00:37:15;9.00;;;6.80;;
10162;SDS011;5123;52.556;13.384;2022-07-23T00:40:07;7.70;;;6.90;;
10162;SDS011;5123;52.556;13.384;2022-07-23T00:42:59;8.67;;;6.80;;
10162;SDS011;5123;52.556;13.384;2022-07-23T00:45:50;7.13;;;6.43;;
10162;SDS011;5123;52.556;13.384;2022-07-23T00:48:42;7.73;;;6.30;;
10162;SDS011;5123;52.556;13.384;2022-07-23T00:51:33;9.27;;;7.13;;
10162;SDS011;5123;52.556;13.384;2022-07-23T00:54:26;8.80;;;6.73;;
10162;SDS011;5123;52.556;13.384;2022-07-23T00:57:17;8.80;;;6.63;;
10162;SDS011;5123;52.556;13.384;2022-07-23T01:00:14;8.93;;;6.27;;
10162;SDS011;5123;52.556;13.384;2022-07-23T01:03:05;7.23;;;6.53;;
10162;SDS011;5123;52.556;13.384;2022-07-23T01:05:56;8.73;;;6.47;;
10162;SDS011;5123;52.556;13.384;2022-07-23T01:08:48;8.37;;;6.90;;
10162;SDS011;5123;52.556;13.384;2022-07-23T01:11:40;13.17;;;6.93;;
10162;SDS011;5123;52.556;13.384;2022-07-23T01:14:31;9.03;;;7.10;;
10162;SDS011;5123;52.556;13.384;2022-07-23T01:17:22;7.00;;;6.30;;
10162;SDS011;5123;52.556;13.384;2022-07-23T01:20:13;8.03;;;6.27;;
10162;SDS011;5123;52.556;13.384;2022-07-23T01:23:05;8.03;;;7.20;;
10162;SDS011;5123;52.556;13.384;2022-07-23T01:25:56;9.07;;;6.77;;
10162;SDS011;5123;52.556;13.384;2022-07-23T01:28:47;7.73;;;6.93;;
10162;SDS011;5123;52.556;13.384;2022-07-23T01:31:38;8.40;;;6.60;;
10162;SDS011;5123;52.556;13.384;2022-07-23T01:34:29;8.27;;;6.90;;
10162;SDS011;5123;52.556;13.384;2022-07-23T01:37:20;9.43;;;6.77;;
10162;SDS011;5123;52.556;13.384;2022-07-23T01:40:13;9.90;;;6.70;;
10162;SDS011;5123;52.556;13.384;2022-07-23T01:43:04;9.50;;;7.17;;
10162;SDS011;5123;52.556;13.384;2022-07-23T01:45:56;8.93;;;7.10;;
10162;SDS011;5123;52.556;13.384;2022-07-23T01:48:47;12.80;;;7.57;;
10162;SDS011;5123;52.556;13.384;2022-07-23T01:51:38;7.70;;;6.90;;
10162;SDS011;5123;52.556;13.384;2022-07-23T01:54:49;7.73;;;6.97;;
10162;SDS011;5123;52.556;13.384;2022-07-23T01:57:41;10.00;;;7.53;;
10162;SDS011;5123;52.556;13.384;2022-07-23T02:00:32;8.90;;;7.50;;
10162;SDS011;5123;52.556;13.384;2022-07-23T02:03:23;7.93;;;7.13;;
10162;SDS011;5123;52.556;13.384;2022-07-23T02:06:14;9.00;;;7.70;;
10162;SDS011;5123;52.556;13.384;2022-07-23T02:09:05;10.00;;;8.43;;
10162;SDS011;5123;52.556;13.384;2022-07-23T02:11:56;8.63;;;7.73;;
10162;SDS011;5123;52.556;13.384;2022-07-23T02:14:48;9.00;;;7.20;;
10162;SDS011;5123;52.556;13.384;2022-07-23T02:17:39;9.70;;;7.40;;
10162;SDS011;5123;52.556;13.384;2022-07-23T02:20:30;11.70;;;8.00;;
10162;SDS011;5123;52.556;13.384;2022-07-23T02:23:21;9.87;;;7.40;;
10162;SDS011;5123;52.556;13.384;2022-07-23T02:26:12;9.73;;;6.90;;
10162;SDS011;5123;52.556;13.384;2022-07-23T02:29:09;7.40;;;6.80;;
10162;SDS011;5123;52.556;13.384;2022-07-23T02:32:01;8.13;;;7.20;;
10162;SDS011;5123;52.556;13.384;2022-07-23T02:34:52;7.47;;;6.77;;
10162;SDS011;5123;52.556;13.384;2022-07-23T02:37:43;7.13;;;6.43;;
10162;SDS011;5123;52.556;13.384;2022-07-23T02:40:34;8.00;;;6.67;;
10162;SDS011;5123;52.556;13.384;2022-07-23T02:43:25;8.10;;;6.57;;
10162;SDS011;5123;52.556;13.384;2022-07-23T02:46:16;6.23;;;5.63;;
10162;SDS011;5123;52.556;13.384;2022-07-23T02:49:08;9.17;;;6.37;;
10162;SDS011;5123;52.556;13.384;2022-07-23T02:51:59;8.00;;;6.70;;
10162;SDS011;5123;52.556;13.384;2022-07-23T02:54:50;8.67;;;7.77;;
10162;SDS011;5123;52.556;13.384;2022-07-23T02:57:41;6.37;;;5.73;;
10162;SDS011;5123;52.556;13.384;2022-07-23T03:00:32;9.53;;;6.43;;
10162;SDS011;5123;52.556;13.384;2022-07-23T03:03:23;7.63;;;6.83;;
10162;SDS011;5123;52.556;13.384;2022-07-23T03:06:20;7.97;;;6.60;;
10162;SDS011;5123;52.556;13.384;2022-07-23T03:09:10;7.83;;;5.90;;
10162;SDS011;5123;52.556;13.384;2022-07-23T03:12:01;8.83;;;6.90;;
10162;SDS011;5123;52.556;13.384;2022-07-23T03:14:52;9.20;;;6.13;;
10162;SDS011;5123;52.556;13.384;2022-07-23T03:17:44;6.63;;;6.03;;
10162;SDS011;5123;52.556;13.384;2022-07-23T03:20:34;7.13;;;6.27;;
10162;SDS011;5123;52.556;13.384;2022-07-23T03:23:27;8.43;;;6.37;;
10162;SDS011;5123;52.556;13.384;2022-07-23T03:26:18;6.97;;;6.20;;
10162;SDS011;5123;52.556;13.384;2022-07-23T03:29:08;8.70;;;7.10;;
10162;SDS011;5123;52.556;13.384;2022-07-23T03:32:00;8.00;;;6.80;;
10162;SDS011;5123;52.556;13.384;2022-07-23T03:34:53;7.33;;;5.67;;
10162;SDS011;5123;52.556;13.384;2022-07-23T03:37:45;7.03;;;5.87;;
10162;SDS011;5123;52.556;13.384;2022-07-23T03:40:37;10.33;;;5.70;;
10162;SDS011;5123;52.556;13.384;2022-07-23T03:43:28;7.50;;;5.47;;
10162;SDS011;5123;52.556;13.384;2022-07-23T03:46:19;5.73;;;4.70;;
10162;SDS011;5123;52.556;13.384;2022-07-23T03:49:10;5.07;;;4.30;;
10162;SDS011;5123;52.556;13.384;2022-07-23T03:52:02;9.33;;;4.63;;
10162;SDS011;5123;52.556;13.384;2022-07-23T03:54:53;5.60;;;5.00;;
10162;SDS011;5123;52.556;13.384;2022-07-23T03:57:45;6.23;;;4.47;;
10162;SDS011;5123;52.556;13.384;2022-07-23T04:00:36;6.70;;;4.57;;
10162;SDS011;5123;52.556;13.384;2022-07-23T04:03:27;9.50;;;4.50;;
10162;SDS011;5123;52.556;13.384;2022-07-23T04:06:18;5.33;;;3.90;;
10162;SDS011;5123;52.556;13.384;2022-07-23T04:09:09;5.10;;;4.00;;
10162;SDS011;5123;52.556;13.384;2022-07-23T04:12:01;6.87;;;3.63;;
10162;SDS011;5123;52.556;13.384;2022-07-23T04:14:53;9.87;;;4.20;;
10162;SDS011;5123;52.556;13.384;2022-07-23T04:17:44;6.03;;;3.30;;
10162;SDS011;5123;52.556;13.384;2022-07-23T04:20:36;4.60;;;3.50;;
10162;SDS011;5123;52.556;13.384;2022-07-23T04:23:30;6.40;;;3.60;;
10162;SDS011;5123;52.556;13.384;2022-07-23T04:26:21;4.80;;;3.30;;
10162;SDS011;5123;52.556;13.384;2022-07-23T04:29:12;6.20;;;3.03;;
10162;SDS011;5123;52.556;13.384;2022-07-23T04:32:05;4.60;;;3.67;;
10162;SDS011;5123;52.556;13.384;2022-07-23T04:34:56;5.40;;;3.20;;
10162;SDS011;5123;52.556;13.384;2022-07-23T04:37:47;6.63;;;3.60;;
10162;SDS011;5123;52.556;13.384;2022-07-23T04:40:38;7.93;;;4.27;;
10162;SDS011;5123;52.556;13.384;2022-07-23T04:43:29;6.03;;;3.83;;
10162;SDS011;5123;52.556;13.384;2022-07-23T04:46:20;5.93;;;4.17;;
10162;SDS011;5123;52.556;13.384;2022-07-23T04:49:12;10.03;;;4.30;;
10162;SDS011;5123;52.556;13.384;2022-07-23T04:52:04;7.40;;;4.20;;
10162;SDS011;5123;52.556;13.384;2022-07-23T04:54:55;9.80;;;4.87;;
10162;SDS011;5123;52.556;13.384;2022-07-23T04:57:46;7.20;;;4.30;;
10162;SDS011;5123;52.556;13.384;2022-07-23T05:00:37;6.43;;;4.50;;
10162;SDS011;5123;52.556;13.384;2022-07-23T05:03:27;6.83;;;4.43;;
10162;SDS011;5123;52.556;13.384;2022-07-23T05:06:20;8.40;;;4.63;;
10162;SDS011;5123;52.556;13.384;2022-07-23T05:09:11;8.63;;;4.93;;
10162;SDS011;5123;52.556;13.384;2022-07-23T05:12:02;5.67;;;4.20;;
10162;SDS011;5123;52.556;13.384;2022-07-23T05:14:53;6.83;;;4.73;;
10162;SDS011;5123;52.556;13.384;2022-07-23T05:17:44;6.40;;;5.00;;
10162;SDS011;5123;52.556;13.384;2022-07-23T05:20:35;7.23;;;4.57;;
10162;SDS011;5123;52.556;13.384;2022-07-23T05:23:28;10.40;;;5.07;;
10162;SDS011;5123;52.556;13.384;2022-07-23T05:26:19;9.43;;;5.00;;
10162;SDS011;5123;52.556;13.384;2022-07-23T05:29:11;7.33;;;4.73;;
10162;SDS011;5123;52.556;13.384;2022-07-23T05:32:02;6.27;;;4.63;;
10162;SDS011;5123;52.556;13.384;2022-07-23T05:34:53;8.57;;;5.20;;
10162;SDS011;5123;52.556;13.384;2022-07-23T05:37:44;8.77;;;5.07;;
10162;SDS011;5123;52.556;13.384;2022-07-23T05:40:36;5.20;;;3.97;;
10162;SDS011;5123;52.556;13.384;2022-07-23T05:43:27;8.50;;;5.13;;
10162;SDS011;5123;52.556;13.384;2022-07-23T05:46:18;4.80;;;4.20;;
10162;SDS011;5123;52.556;13.384;2022-07-23T05:49:10;5.20;;;4.70;;
10162;SDS011;5123;52.556;13.384;2022-07-23T05:52:03;6.03;;;4.77;;
10162;SDS011;5123;52.556;13.384;2022-07-23T05:54:54;7.57;;;4.57;;
10162;SDS011;5123;52.556;13.384;2022-07-23T05:57:47;8.13;;;4.57;;
10162;SDS011;5123;52.556;13.384;2022-07-23T06:00:38;7.43;;;4.47;;
10162;SDS011;5123;52.556;13.384;2022-07-23T06:03:29;5.60;;;4.90;;
10162;SDS011;5123;52.556;13.384;2022-07-23T06:06:20;8.33;;;5.63;;
10162;SDS011;5123;52.556;13.384;2022-07-23T06:09:12;6.90;;;5.20;;
10162;SDS011;5123;52.556;13.384;2022-07-23T06:12:03;8.10;;;5.10;;
10162;SDS011;5123;52.556;13.384;2022-07-23T06:14:56;9.07;;;5.10;;
10162;SDS011;5123;52.556;13.384;2022-07-23T06:17:47;9.83;;;5.77;;
10162;SDS011;5123;52.556;13.384;2022-07-23T06:20:38;6.60;;;5.10;;
10162;SDS011;5123;52.556;13.384;2022-07-23T06:23:29;11.10;;;5.90;;
10162;SDS011;5123;52.556;13.384;2022-07-23T06:26:20;7.73;;;5.13;;
10162;SDS011;5123;52.556;13.384;2022-07-23T06:29:11;7.17;;;5.30;;
10162;SDS011;5123;52.556;13.384;2022-07-23T06:32:03;7.60;;;5.43;;
10162;SDS011;5123;52.556;13.384;2022-07-23T06:34:54;8.20;;;4.93;;
10162;SDS011;5123;52.556;13.384;2022-07-23T06:37:45;8.60;;;5.27;;
10162;SDS011;5123;52.556;13.384;2022-07-23T06:40:37;7.70;;;6.20;;
10162;SDS011;5123;52.556;13.384;2022-07-23T06:43:29;7.43;;;5.13;;
10162;SDS011;5123;52.556;13.384;2022-07-23T06:46:21;8.87;;;5.47;;
10162;SDS011;5123;52.556;13.384;2022-07-23T06:49:13;10.23;;;5.80;;
10162;SDS011;5123;52.556;13.384;2022-07-23T06:52:05;7.80;;;5.83;;
10162;SDS011;5123;52.556;13.384;2022-07-23T06:54:55;7.33;;;5.87;;
10162;SDS011;5123;52.556;13.384;2022-07-23T06:57:46;9.97;;;5.53;;
10162;SDS011;5123;52.556;13.384;2022-07-23T07:00:37;7.57;;;5.23;;
10162;SDS011;5123;52.556;13.384;2022-07-23T07:03:28;7.03;;;5.60;;
10162;SDS011;5123;52.556;13.384;2022-07-23T07:06:20;5.60;;;4.97;;
10162;SDS011;5123;52.556;13.384;2022-07-23T07:09:11;6.00;;;5.33;;
10162;SDS011;5123;52.556;13.384;2022-07-23T07:12:02;6.97;;;5.53;;
10162;SDS011;5123;52.556;13.384;2022-07-23T07:14:53;8.43;;;6.17;;
10162;SDS011;5123;52.556;13.384;2022-07-23T07:17:44;8.83;;;5.10;;
10162;SDS011;5123;52.556;13.384;2022-07-23T07:20:35;8.13;;;4.97;;
10162;SDS011;5123;52.556;13.384;2022-07-23T07:23:27;8.10;;;5.20;;
10162;SDS011;5123;52.556;13.384;2022-07-23T07:26:18;7.47;;;5.30;;
10162;SDS011;5123;52.556;13.384;2022-07-23T07:29:09;8.20;;;5.37;;
10162;SDS011;5123;52.556;13.384;2022-07-23T07:31:59;8.73;;;5.00;;
10162;SDS011;5123;52.556;13.384;2022-07-23T07:34:50;7.43;;;5.33;;
10162;SDS011;5123;52.556;13.384;2022-07-23T07:37:41;7.73;;;5.37;;
10162;SDS011;5123;52.556;13.384;2022-07-23T07:40:33;11.10;;;6.20;;
10162;SDS011;5123;52.556;13.384;2022-07-23T07:43:24;6.47;;;5.70;;
10162;SDS011;5123;52.556;13.384;2022-07-23T07:46:15;11.63;;;5.40;;
10162;SDS011;5123;52.556;13.384;2022-07-23T07:49:06;7.70;;;5.83;;
10162;SDS011;5123;52.556;13.384;2022-07-23T07:52:05;7.77;;;5.37;;
10162;SDS011;5123;52.556;13.384;2022-07-23T07:54:56;6.80;;;5.10;;
10162;SDS011;5123;52.556;13.384;2022-07-23T07:57:48;9.10;;;5.70;;
10162;SDS011;5123;52.556;13.384;2022-07-23T08:00:39;7.97;;;5.20;;
10162;SDS011;5123;52.556;13.384;2022-07-23T08:03:30;10.30;;;5.43;;
10162;SDS011;5123;52.556;13.384;2022-07-23T08:06:22;6.73;;;5.27;;
10162;SDS011;5123;52.556;13.384;2022-07-23T08:09:13;7.67;;;5.30;;
10162;SDS011;5123;52.556;13.384;2022-07-23T08:12:04;8.77;;;6.23;;
10162;SDS011;5123;52.556;13.384;2022-07-23T08:14:56;7.40;;;5.10;;
10162;SDS011;5123;52.556;13.384;2022-07-23T08:17:47;6.07;;;4.13;;
10162;SDS011;5123;52.556;13.384;2022-07-23T08:20:38;6.13;;;3.80;;
10162;SDS011;5123;52.556;13.384;2022-07-23T08:23:29;5.37;;;3.13;;
10162;SDS011;5123;52.556;13.384;2022-07-23T08:26:20;6.10;;;3.93;;
10162;SDS011;5123;52.556;13.384;2022-07-23T08:29:11;4.80;;;4.00;;
10162;SDS011;5123;52.556;13.384;2022-07-23T08:32:03;5.17;;;3.30;;
10162;SDS011;5123;52.556;13.384;2022-07-23T08:35:15;4.80;;;3.60;;
10162;SDS011;5123;52.556;13.384;2022-07-23T08:38:06;7.70;;;3.40;;
10162;SDS011;5123;52.556;13.384;2022-07-23T08:40:57;6.63;;;3.57;;
10162;SDS011;5123;52.556;13.384;2022-07-23T08:43:48;4.23;;;3.43;;
10162;SDS011;5123;52.556;13.384;2022-07-23T08:46:39;5.33;;;3.37;;
10162;SDS011;5123;52.556;13.384;2022-07-23T08:49:34;4.40;;;3.27;;
10162;SDS011;5123;52.556;13.384;2022-07-23T08:52:25;5.17;;;3.77;;
10162;SDS011;5123;52.556;13.384;2022-07-23T08:55:17;4.37;;;3.53;;
10162;SDS011;5123;52.556;13.384;2022-07-23T08:58:08;6.70;;;3.87;;
10162;SDS011;5123;52.556;13.384;2022-07-23T09:00:59;7.37;;;4.50;;
10162;SDS011;5123;52.556;13.384;2022-07-23T09:03:50;6.13;;;3.93;;
10162;SDS011;5123;52.556;13.384;2022-07-23T09:06:42;8.90;;;4.37;;
10162;SDS011;5123;52.556;13.384;2022-07-23T09:09:34;6.33;;;4.40;;
10162;SDS011;5123;52.556;13.384;2022-07-23T09:12:25;7.30;;;4.50;;
10162;SDS011;5123;52.556;13.384;2022-07-23T09:15:16;7.63;;;4.17;;
10162;SDS011;5123;52.556;13.384;2022-07-23T09:18:08;5.77;;;3.87;;
10162;SDS011;5123;52.556;13.384;2022-07-23T09:21:08;7.47;;;3.73;;
10162;SDS011;5123;52.556;13.384;2022-07-23T09:24:01;7.37;;;3.90;;
10162;SDS011;5123;52.556;13.384;2022-07-23T09:26:54;7.40;;;4.67;;
10162;SDS011;5123;52.556;13.384;2022-07-23T09:29:54;8.73;;;3.83;;
10162;SDS011;5123;52.556;13.384;2022-07-23T09:35:52;6.07;;;4.27;;
10162;SDS011;5123;52.556;13.384;2022-07-23T09:38:47;5.30;;;4.50;;
10162;SDS011;5123;52.556;13.384;2022-07-23T09:41:41;6.27;;;4.50;;
10162;SDS011;5123;52.556;13.384;2022-07-23T09:44:32;4.80;;;4.40;;
10162;SDS011;5123;52.556;13.384;2022-07-23T09:47:31;5.37;;;4.37;;
10162;SDS011;5123;52.556;13.384;2022-07-23T09:50:23;5.63;;;4.60;;
10162;SDS011;5123;52.556;13.384;2022-07-23T09:53:23;4.73;;;4.07;;
10162;SDS011;5123;52.556;13.384;2022-07-23T09:56:14;4.27;;;3.70;;
10162;SDS011;5123;52.556;13.384;2022-07-23T09:59:07;4.40;;;4.00;;
10162;SDS011;5123;52.556;13.384;2022-07-23T10:01:59;5.77;;;4.33;;
10162;SDS011;5123;52.556;13.384;2022-07-23T10:04:50;4.20;;;3.80;;
10162;SDS011;5123;52.556;13.384;2022-07-23T10:07:43;4.67;;;3.80;;
10162;SDS011;5123;52.556;13.384;2022-07-23T10:10:41;5.70;;;3.30;;
10162;SDS011;5123;52.556;13.384;2022-07-23T10:13:33;4.90;;;3.37;;
10162;SDS011;5123;52.556;13.384;2022-07-23T10:16:43;5.90;;;4.00;;
10162;SDS011;5123;52.556;13.384;2022-07-23T10:19:35;4.70;;;3.87;;
10162;SDS011;5123;52.556;13.384;2022-07-23T10:22:26;7.17;;;4.20;;
10162;SDS011;5123;52.556;13.384;2022-07-23T10:25:19;7.67;;;3.37;;
10162;SDS011;5123;52.556;13.384;2022-07-23T10:28:22;4.70;;;3.90;;
10162;SDS011;5123;52.556;13.384;2022-07-23T10:31:17;5.63;;;3.57;;
10162;SDS011;5123;52.556;13.384;2022-07-23T10:34:36;4.73;;;3.57;;
10162;SDS011;5123;52.556;13.384;2022-07-23T10:37:29;5.33;;;3.90;;
10162;SDS011;5123;52.556;13.384;2022-07-23T10:40:22;5.60;;;3.90;;
10162;SDS011;5123;52.556;13.384;2022-07-23T10:43:13;5.93;;;3.67;;
10162;SDS011;5123;52.556;13.384;2022-07-23T10:49:20;7.40;;;3.50;;
10162;SDS011;5123;52.556;13.384;2022-07-23T10:52:17;4.20;;;3.80;;
10162;SDS011;5123;52.556;13.384;2022-07-23T10:58:22;6.27;;;3.37;;
10162;SDS011;5123;52.556;13.384;2022-07-23T11:01:32;5.23;;;3.60;;
10162;SDS011;5123;52.556;13.384;2022-07-23T11:07:31;6.33;;;3.50;;
10162;SDS011;5123;52.556;13.384;2022-07-23T11:10:32;5.57;;;4.00;;
10162;SDS011;5123;52.556;13.384;2022-07-23T11:13:27;5.50;;;3.97;;
10162;SDS011;5123;52.556;13.384;2022-07-23T11:16:22;5.90;;;4.13;;
10162;SDS011;5123;52.556;13.384;2022-07-23T11:19:14;6.40;;;3.90;;
10162;SDS011;5123;52.556;13.384;2022-07-23T11:22:04;6.23;;;4.20;;
10162;SDS011;5123;52.556;13.384;2022-07-23T11:24:56;5.17;;;4.17;;
10162;SDS011;5123;52.556;13.384;2022-07-23T11:27:49;4.70;;;3.73;;
10162;SDS011;5123;52.556;13.384;2022-07-23T11:30:41;5.27;;;3.47;;
10162;SDS011;5123;52.556;13.384;2022-07-23T11:33:32;4.93;;;4.07;;
10162;SDS011;5123;52.556;13.384;2022-07-23T11:36:23;7.50;;;3.97;;
10162;SDS011;5123;52.556;13.384;2022-07-23T11:39:14;4.77;;;3.47;;
10162;SDS011;5123;52.556;13.384;2022-07-23T11:42:07;3.77;;;3.47;;
10162;SDS011;5123;52.556;13.384;2022-07-23T11:44:58;5.57;;;3.80;;
10162;SDS011;5123;52.556;13.384;2022-07-23T11:47:49;6.63;;;3.77;;
10162;SDS011;5123;52.556;13.384;2022-07-23T11:50:39;4.40;;;4.00;;
10162;SDS011;5123;52.556;13.384;2022-07-23T11:53:31;6.30;;;3.90;;
10162;SDS011;5123;52.556;13.384;2022-07-23T11:56:22;5.30;;;3.67;;
10162;SDS011;5123;52.556;13.384;2022-07-23T11:59:15;5.50;;;3.83;;
10162;SDS011;5123;52.556;13.384;2022-07-23T12:02:06;5.73;;;3.70;;
10162;SDS011;5123;52.556;13.384;2022-07-23T12:04:58;4.70;;;3.63;;
10162;SDS011;5123;52.556;13.384;2022-07-23T12:07:49;4.33;;;3.30;;
10162;SDS011;5123;52.556;13.384;2022-07-23T12:10:41;4.20;;;3.90;;
10162;SDS011;5123;52.556;13.384;2022-07-23T12:13:32;6.10;;;4.30;;
10162;SDS011;5123;52.556;13.384;2022-07-23T12:16:24;6.53;;;3.80;;
10162;SDS011;5123;52.556;13.384;2022-07-23T12:19:16;4.67;;;3.80;;
10162;SDS011;5123;52.556;13.384;2022-07-23T12:22:07;4.73;;;3.43;;
10162;SDS011;5123;52.556;13.384;2022-07-23T12:24:59;6.20;;;3.63;;
10162;SDS011;5123;52.556;13.384;2022-07-23T12:28:01;5.37;;;3.93;;
10162;SDS011;5123;52.556;13.384;2022-07-23T12:30:53;6.30;;;4.17;;
10162;SDS011;5123;52.556;13.384;2022-07-23T12:33:45;9.73;;;3.97;;
10162;SDS011;5123;52.556;13.384;2022-07-23T12:36:38;5.47;;;4.10;;
10162;SDS011;5123;52.556;13.384;2022-07-23T12:39:31;4.93;;;4.00;;
10162;SDS011;5123;52.556;13.384;2022-07-23T12:42:21;5.87;;;3.93;;
10162;SDS011;5123;52.556;13.384;2022-07-23T12:45:14;5.70;;;3.63;;
10162;SDS011;5123;52.556;13.384;2022-07-23T12:48:05;5.50;;;3.90;;
10162;SDS011;5123;52.556;13.384;2022-07-23T12:50:59;5.27;;;3.80;;
10162;SDS011;5123;52.556;13.384;2022-07-23T12:53:51;4.23;;;3.67;;
10162;SDS011;5123;52.556;13.384;2022-07-23T12:56:44;9.43;;;3.77;;
10162;SDS011;5123;52.556;13.384;2022-07-23T12:59:37;5.60;;;3.43;;
10162;SDS011;5123;52.556;13.384;2022-07-23T13:02:40;5.67;;;4.10;;
10162;SDS011;5123;52.556;13.384;2022-07-23T13:05:35;5.63;;;3.63;;
10162;SDS011;5123;52.556;13.384;2022-07-23T13:08:28;4.60;;;4.20;;
10162;SDS011;5123;52.556;13.384;2022-07-23T13:11:19;4.60;;;4.07;;
10162;SDS011;5123;52.556;13.384;2022-07-23T13:14:11;4.50;;;3.80;;
10162;SDS011;5123;52.556;13.384;2022-07-23T13:17:02;4.53;;;3.23;;
10162;SDS011;5123;52.556;13.384;2022-07-23T13:19:55;4.33;;;3.70;;
10162;SDS011;5123;52.556;13.384;2022-07-23T13:22:47;4.17;;;3.77;;
10162;SDS011;5123;52.556;13.384;2022-07-23T13:25:39;4.73;;;4.33;;
10162;SDS011;5123;52.556;13.384;2022-07-23T13:28:30;3.93;;;3.50;;
10162;SDS011;5123;52.556;13.384;2022-07-23T13:31:21;6.70;;;3.40;;
10162;SDS011;5123;52.556;13.384;2022-07-23T13:34:13;4.80;;;3.43;;
10162;SDS011;5123;52.556;13.384;2022-07-23T13:37:04;4.73;;;3.13;;
10162;SDS011;5123;52.556;13.384;2022-07-23T13:39:55;3.30;;;3.00;;
10162;SDS011;5123;52.556;13.384;2022-07-23T13:42:47;3.83;;;3.43;;
10162;SDS011;5123;52.556;13.384;2022-07-23T13:45:39;4.90;;;3.37;;
10162;SDS011;5123;52.556;13.384;2022-07-23T13:48:32;5.03;;;3.20;;
10162;SDS011;5123;52.556;13.384;2022-07-23T13:51:24;6.43;;;3.10;;
10162;SDS011;5123;52.556;13.384;2022-07-23T13:54:18;4.90;;;3.23;;
10162;SDS011;5123;52.556;13.384;2022-07-23T13:57:10;3.33;;;2.83;;
10162;SDS011;5123;52.556;13.384;2022-07-23T14:00:03;5.23;;;3.13;;
10162;SDS011;5123;52.556;13.384;2022-07-23T14:02:54;6.50;;;2.77;;
10162;SDS011;5123;52.556;13.384;2022-07-23T14:05:46;4.60;;;3.07;;
10162;SDS011;5123;52.556;13.384;2022-07-23T14:08:38;4.53;;;3.23;;
10162;SDS011;5123;52.556;13.384;2022-07-23T14:11:29;3.43;;;2.73;;
10162;SDS011;5123;52.556;13.384;2022-07-23T14:14:20;4.43;;;2.80;;
10162;SDS011;5123;52.556;13.384;2022-07-23T14:17:13;4.47;;;3.40;;
10162;SDS011;5123;52.556;13.384;2022-07-23T14:20:05;2.83;;;2.63;;
10162;SDS011;5123;52.556;13.384;2022-07-23T14:22:56;5.37;;;2.87;;
10162;SDS011;5123;52.556;13.384;2022-07-23T14:25:53;3.83;;;2.90;;
10162;SDS011;5123;52.556;13.384;2022-07-23T14:28:44;3.90;;;2.70;;
10162;SDS011;5123;52.556;13.384;2022-07-23T14:31:37;3.57;;;2.63;;
10162;SDS011;5123;52.556;13.384;2022-07-23T14:34:31;3.33;;;2.67;;
10162;SDS011;5123;52.556;13.384;2022-07-23T14:37:24;3.60;;;2.93;;
10162;SDS011;5123;52.556;13.384;2022-07-23T14:40:15;3.67;;;2.50;;
10162;SDS011;5123;52.556;13.384;2022-07-23T14:43:06;3.57;;;2.40;;
10162;SDS011;5123;52.556;13.384;2022-07-23T14:46:00;2.20;;;2.00;;
10162;SDS011;5123;52.556;13.384;2022-07-23T14:48:52;2.37;;;2.13;;
10162;SDS011;5123;52.556;13.384;2022-07-23T14:51:45;3.33;;;2.10;;
10162;SDS011;5123;52.556;13.384;2022-07-23T14:54:36;2.57;;;2.00;;
10162;SDS011;5123;52.556;13.384;2022-07-23T14:57:27;3.00;;;2.10;;
10162;SDS011;5123;52.556;13.384;2022-07-23T15:00:19;3.30;;;2.20;;
10162;SDS011;5123;52.556;13.384;2022-07-23T15:03:12;2.40;;;1.90;;
10162;SDS011;5123;52.556;13.384;2022-07-23T15:06:05;3.17;;;2.03;;
10162;SDS011;5123;52.556;13.384;2022-07-23T15:08:57;3.30;;;2.83;;
10162;SDS011;5123;52.556;13.384;2022-07-23T15:11:51;4.27;;;2.10;;
10162;SDS011;5123;52.556;13.384;2022-07-23T15:14:42;2.50;;;2.20;;
10162;SDS011;5123;52.556;13.384;2022-07-23T15:17:33;3.30;;;2.20;;
10162;SDS011;5123;52.556;13.384;2022-07-23T15:20:25;4.20;;;1.87;;
10162;SDS011;5123;52.556;13.384;2022-07-23T15:23:25;3.60;;;2.30;;
10162;SDS011;5123;52.556;13.384;2022-07-23T15:26:18;3.27;;;2.10;;
10162;SDS011;5123;52.556;13.384;2022-07-23T15:29:09;2.17;;;1.97;;
10162;SDS011;5123;52.556;13.384;2022-07-23T15:32:00;2.43;;;1.83;;
10162;SDS011;5123;52.556;13.384;2022-07-23T15:34:51;2.47;;;2.27;;
10162;SDS011;5123;52.556;13.384;2022-07-23T15:37:42;2.97;;;1.90;;
10162;SDS011;5123;52.556;13.384;2022-07-23T15:40:35;4.07;;;2.13;;
10162;SDS011;5123;52.556;13.384;2022-07-23T15:43:28;3.10;;;2.13;;
10162;SDS011;5123;52.556;13.384;2022-07-23T15:46:18;3.33;;;2.10;;
10162;SDS011;5123;52.556;13.384;2022-07-23T15:49:16;3.07;;;2.50;;
10162;SDS011;5123;52.556;13.384;2022-07-23T15:52:08;3.77;;;2.20;;
10162;SDS011;5123;52.556;13.384;2022-07-23T15:54:59;2.47;;;1.77;;
10162;SDS011;5123;52.556;13.384;2022-07-23T15:57:50;2.43;;;2.13;;
10162;SDS011;5123;52.556;13.384;2022-07-23T16:00:43;4.03;;;2.03;;
10162;SDS011;5123;52.556;13.384;2022-07-23T16:03:36;1.90;;;1.70;;
10162;SDS011;5123;52.556;13.384;2022-07-23T16:06:27;2.13;;;1.90;;
10162;SDS011;5123;52.556;13.384;2022-07-23T16:09:18;4.27;;;2.13;;
10162;SDS011;5123;52.556;13.384;2022-07-23T16:12:09;2.97;;;2.20;;
10162;SDS011;5123;52.556;13.384;2022-07-23T16:15:00;2.50;;;1.70;;
10162;SDS011;5123;52.556;13.384;2022-07-23T16:17:57;2.20;;;1.80;;
10162;SDS011;5123;52.556;13.384;2022-07-23T16:20:49;2.20;;;2.00;;
10162;SDS011;5123;52.556;13.384;2022-07-23T16:23:40;3.80;;;1.90;;
10162;SDS011;5123;52.556;13.384;2022-07-23T16:26:31;2.57;;;1.70;;
10162;SDS011;5123;52.556;13.384;2022-07-23T16:29:22;2.30;;;1.67;;
10162;SDS011;5123;52.556;13.384;2022-07-23T16:32:12;1.67;;;1.57;;
10162;SDS011;5123;52.556;13.384;2022-07-23T16:35:05;2.27;;;2.00;;
10162;SDS011;5123;52.556;13.384;2022-07-23T16:38:03;2.20;;;1.90;;
10162;SDS011;5123;52.556;13.384;2022-07-23T16:40:54;2.60;;;1.70;;
10162;SDS011;5123;52.556;13.384;2022-07-23T16:43:45;2.97;;;1.80;;
10162;SDS011;5123;52.556;13.384;2022-07-23T16:46:37;2.40;;;2.20;;
10162;SDS011;5123;52.556;13.384;2022-07-23T16:49:28;2.07;;;1.47;;
10162;SDS011;5123;52.556;13.384;2022-07-23T16:52:20;3.97;;;1.90;;
10162;SDS011;5123;52.556;13.384;2022-07-23T16:55:12;2.00;;;1.70;;
10162;SDS011;5123;52.556;13.384;2022-07-23T16:58:02;2.57;;;1.83;;
10162;SDS011;5123;52.556;13.384;2022-07-23T17:00:55;4.03;;;1.60;;
10162;SDS011;5123;52.556;13.384;2022-07-23T17:03:46;3.07;;;1.70;;
10162;SDS011;5123;52.556;13.384;2022-07-23T17:06:37;2.60;;;1.60;;
10162;SDS011;5123;52.556;13.384;2022-07-23T17:09:29;2.70;;;1.77;;
10162;SDS011;5123;52.556;13.384;2022-07-23T17:12:20;2.63;;;1.67;;
10162;SDS011;5123;52.556;13.384;2022-07-23T17:15:12;3.70;;;1.87;;
10162;SDS011;5123;52.556;13.384;2022-07-23T17:18:02;1.60;;;1.50;;
10162;SDS011;5123;52.556;13.384;2022-07-23T17:20:53;1.50;;;1.40;;
10162;SDS011;5123;52.556;13.384;2022-07-23T17:23:44;2.67;;;1.80;;
10162;SDS011;5123;52.556;13.384;2022-07-23T17:26:37;1.77;;;1.60;;
10162;SDS011;5123;52.556;13.384;2022-07-23T17:29:27;1.60;;;1.50;;